createdAt,value
2017-11-03T00:05:56.946Z,"    0"
2017-11-03T00:10:52.922Z,"    0"
2017-11-03T00:15:48.590Z,"    0"
2017-11-03T00:20:45.497Z,"    0"
2017-11-03T00:25:42.083Z,"    0"
2017-11-03T00:30:38.056Z,"    0"
2017-11-03T00:35:34.893Z,"    0"
2017-11-03T00:40:31.480Z,"    0"
2017-11-03T00:45:26.626Z,"    0"
2017-11-03T00:50:22.574Z,"    0"
2017-11-03T00:55:19.306Z,"    0"
2017-11-03T01:00:17.292Z,"    0"
2017-11-03T01:05:13.067Z,"    0"
2017-11-03T01:10:08.636Z,"    0"
2017-11-03T01:15:05.529Z,"    0"
2017-11-03T01:20:01.051Z,"    0"
2017-11-03T01:24:56.868Z,"    0"
2017-11-03T01:29:52.732Z,"    0"
2017-11-03T01:34:48.964Z,"    0"
2017-11-03T01:39:44.692Z,"    0"
2017-11-03T01:44:40.753Z,"    0"
2017-11-03T01:49:36.921Z,"    0"
2017-11-03T01:54:32.623Z,"    0"
2017-11-03T01:59:28.154Z,"    0"
2017-11-03T02:04:24.910Z,"    0"
2017-11-03T02:09:20.457Z,"    0"
2017-11-03T02:14:16.212Z,"    0"
2017-11-03T02:19:13.100Z,"    0"
2017-11-03T02:24:08.665Z,"    0"
2017-11-03T02:29:04.878Z,"    0"
2017-11-03T02:34:00.673Z,"    0"
2017-11-03T02:38:56.450Z,"    0"
2017-11-03T02:43:53.237Z,"    0"
2017-11-03T02:48:49.081Z,"    0"
2017-11-03T02:53:45.942Z,"    0"
2017-11-03T02:58:41.316Z,"    0"
2017-11-03T03:03:36.955Z,"    0"
2017-11-03T03:08:32.708Z,"    0"
2017-11-03T03:13:28.444Z,"    0"
2017-11-03T03:18:25.136Z,"    0"
2017-11-03T03:23:21.643Z,"    0"
2017-11-03T03:28:17.023Z,"    0"
2017-11-03T03:33:12.599Z,"    0"
2017-11-03T03:38:08.294Z,"    0"
2017-11-03T03:43:04.379Z,"    0"
2017-11-03T03:48:00.214Z,"    0"
2017-11-03T03:52:55.924Z,"    0"
2017-11-03T03:57:52.967Z,"    0"
2017-11-03T04:02:49.303Z,"    0"
2017-11-03T04:07:44.761Z,"    0"
2017-11-03T04:12:40.499Z,"    0"
2017-11-03T04:17:37.347Z,"    0"
2017-11-03T04:22:34.736Z,"    0"
2017-11-03T04:27:32.218Z,"    0"
2017-11-03T04:32:28.370Z,"    0"
2017-11-03T04:37:24.101Z,"    0"
2017-11-03T04:42:20.262Z,"    0"
2017-11-03T04:47:17.904Z,"    0"
2017-11-03T04:52:14.342Z,"    0"
2017-11-03T04:57:10.226Z,"    0"
2017-11-03T05:02:05.852Z,"    0"
2017-11-03T05:07:02.771Z,"    0"
2017-11-03T05:11:58.971Z,"    0"
2017-11-03T05:16:55.229Z,"    0"
2017-11-03T05:21:50.853Z,"    0"
2017-11-03T05:26:46.352Z,"    0"
2017-11-03T05:31:43.573Z,"    0"
2017-11-03T05:36:40.339Z,"    0"
2017-11-03T05:41:36.809Z,"    0"
2017-11-03T05:46:33.170Z,"    0"
2017-11-03T05:51:28.776Z,"    0"
2017-11-03T05:56:24.694Z,"    0"
2017-11-03T06:01:21.888Z,"    4"
2017-11-03T06:06:17.481Z,"    8"
2017-11-03T06:11:14.223Z,"   20"
2017-11-03T06:16:09.765Z,"   36"
2017-11-03T06:21:05.676Z,"   60"
2017-11-03T06:26:01.507Z,"  100"
2017-11-03T06:30:57.441Z,"  160"
2017-11-03T06:35:53.176Z,"  212"
2017-11-03T06:40:49.097Z,"  324"
2017-11-03T06:45:44.959Z,"  364"
2017-11-03T06:50:41.531Z,"  452"
2017-11-03T06:55:37.866Z,"  604"
2017-11-03T07:00:35.698Z,"  564"
2017-11-03T07:05:30.957Z,"  656"
2017-11-03T07:10:27.817Z,"  800"
2017-11-03T07:15:23.361Z,"  952"
2017-11-03T07:20:19.792Z," 1368"
2017-11-03T07:25:16.236Z," 1140"
2017-11-03T07:30:11.949Z," 1304"
2017-11-03T07:35:08.296Z," 1800"
2017-11-03T07:40:05.156Z," 1420"
2017-11-03T07:45:00.686Z," 1572"
2017-11-03T07:49:57.636Z," 1156"
2017-11-03T07:54:54.178Z," 1720"
2017-11-03T07:59:49.981Z," 1944"
2017-11-03T08:04:46.095Z," 1820"
2017-11-03T08:09:42.072Z," 1664"
2017-11-03T08:14:40.144Z," 1796"
2017-11-03T08:19:36.529Z," 1304"
2017-11-03T08:24:33.179Z," 1820"
2017-11-03T08:29:29.737Z," 1696"
2017-11-03T08:34:25.200Z," 2004"
2017-11-03T08:39:22.040Z," 1524"
2017-11-03T08:44:18.734Z," 1932"
2017-11-03T08:49:14.397Z," 3008"
2017-11-03T08:54:12.459Z," 2164"
2017-11-03T08:59:07.792Z," 2096"
2017-11-03T09:04:05.408Z," 3032"
2017-11-03T09:09:01.345Z," 2908"
2017-11-03T09:13:57.178Z," 2628"
2017-11-03T09:18:53.895Z," 3832"
2017-11-03T09:23:51.026Z," 4492"
2017-11-03T09:28:48.695Z," 4396"
2017-11-03T09:33:45.297Z," 4100"
2017-11-03T09:38:41.129Z," 4096"
2017-11-03T09:43:37.084Z," 4712"
2017-11-03T09:48:33.910Z," 4456"
2017-11-03T09:53:30.580Z," 4016"
2017-11-03T09:58:28.339Z," 4644"
2017-11-03T10:03:24.700Z," 5000"
2017-11-03T10:08:20.436Z," 5284"
2017-11-03T10:13:16.451Z," 5088"
2017-11-03T10:18:14.282Z," 5100"
2017-11-03T10:23:11.135Z," 4604"
2017-11-03T10:28:06.785Z," 4952"
2017-11-03T10:33:04.417Z," 4880"
2017-11-03T10:38:00.081Z," 5264"
2017-11-03T10:42:57.160Z," 5352"
2017-11-03T10:47:54.122Z," 5276"
2017-11-03T10:52:50.429Z," 4704"
2017-11-03T10:57:49.976Z," 4608"
2017-11-03T11:02:45.079Z," 5916"
2017-11-03T11:07:41.965Z," 3948"
2017-11-03T11:12:37.776Z," 5568"
2017-11-03T11:17:34.593Z," 5656"
2017-11-03T11:22:31.159Z," 6324"
2017-11-03T11:27:27.383Z," 6240"
2017-11-03T11:32:24.386Z," 5648"
2017-11-03T11:37:20.306Z," 5464"
2017-11-03T11:42:16.130Z," 5496"
2017-11-03T11:47:12.950Z," 5592"
2017-11-03T11:52:09.596Z," 6212"
2017-11-03T11:57:05.322Z," 5976"
2017-11-03T12:02:02.188Z," 6248"
2017-11-03T12:06:57.893Z," 6252"
2017-11-03T12:11:54.710Z," 5876"
2017-11-03T12:16:52.338Z," 5412"
2017-11-03T12:21:48.485Z," 5372"
2017-11-03T12:26:43.825Z," 5268"
2017-11-03T12:31:39.793Z," 4536"
2017-11-03T12:36:36.514Z," 4092"
2017-11-03T12:41:32.080Z," 3664"
2017-11-03T12:46:28.496Z," 4212"
2017-11-03T12:51:24.223Z," 4268"
2017-11-03T12:56:22.298Z," 4224"
2017-11-03T13:01:17.849Z," 4276"
2017-11-03T13:06:13.066Z," 4136"
2017-11-03T13:11:09.477Z," 3620"
2017-11-03T13:16:05.372Z," 3732"
2017-11-03T13:21:01.274Z," 3840"
2017-11-03T13:25:58.174Z," 4184"
2017-11-03T13:30:54.447Z," 3560"
2017-11-03T13:35:50.368Z," 3336"
2017-11-03T13:40:47.056Z," 2748"
2017-11-03T13:45:42.524Z," 2692"
2017-11-03T13:50:38.611Z," 3448"
2017-11-03T13:55:34.758Z," 2892"
2017-11-03T14:00:30.463Z," 2956"
2017-11-03T14:05:26.203Z," 2668"
2017-11-03T14:10:21.845Z," 2516"
2017-11-03T14:15:18.091Z," 2548"
2017-11-03T14:20:13.869Z," 2256"
2017-11-03T14:25:10.982Z," 2072"
2017-11-03T14:30:06.792Z," 1988"
2017-11-03T14:35:02.951Z," 1800"
2017-11-03T14:39:58.652Z," 1688"
2017-11-03T14:44:54.663Z," 1600"
2017-11-03T14:49:51.738Z," 1496"
2017-11-03T14:54:48.193Z," 1408"
2017-11-03T14:59:43.682Z," 1252"
2017-11-03T15:04:40.579Z," 1088"
2017-11-03T15:09:37.062Z," 1028"
2017-11-03T15:14:32.476Z,"  912"
2017-11-03T15:19:28.252Z,"  796"
2017-11-03T15:24:25.045Z,"  664"
2017-11-03T15:29:21.559Z,"  524"
2017-11-03T15:34:20.053Z,"  388"
2017-11-03T15:39:15.099Z,"  268"
2017-11-03T15:44:11.290Z,"  196"
2017-11-03T15:49:06.927Z,"  152"
2017-11-03T15:54:03.104Z,"  100"
2017-11-03T15:58:58.607Z,"   52"
2017-11-03T16:03:54.569Z,"   24"
2017-11-03T16:08:50.585Z,"   12"
2017-11-03T16:13:47.569Z,"    8"
2017-11-03T16:18:44.516Z,"    4"
2017-11-03T16:23:40.610Z,"    0"
2017-11-03T16:28:36.509Z,"    0"
2017-11-03T16:33:33.494Z,"    0"
2017-11-03T16:38:28.914Z,"    0"
2017-11-03T16:43:26.030Z,"    0"
2017-11-03T16:48:22.526Z,"    0"
2017-11-03T16:53:18.357Z,"    0"
2017-11-03T16:58:16.339Z,"    0"
2017-11-03T17:03:11.547Z,"    0"
2017-11-03T17:08:07.277Z,"    0"
2017-11-03T17:13:03.017Z,"    0"
2017-11-03T17:18:00.717Z,"    0"
2017-11-03T17:22:56.549Z,"    0"
2017-11-03T17:27:52.150Z,"    0"
2017-11-03T17:32:47.740Z,"    0"
2017-11-03T17:37:43.882Z,"    0"
2017-11-03T17:42:40.947Z,"    0"
2017-11-03T17:47:36.440Z,"    0"
2017-11-03T17:52:33.412Z,"    0"
2017-11-03T17:57:28.922Z,"    0"
2017-11-03T18:02:25.242Z,"    0"
2017-11-03T18:07:21.896Z,"    0"
2017-11-03T18:12:18.541Z,"    0"
2017-11-03T18:17:15.650Z,"    0"
2017-11-03T18:22:13.408Z,"    0"
2017-11-03T18:27:08.724Z,"    0"
2017-11-03T18:32:04.418Z,"    0"
2017-11-03T18:37:00.903Z,"    0"
2017-11-03T18:41:58.107Z,"    0"
2017-11-03T18:46:53.766Z,"    0"
2017-11-03T18:51:49.526Z,"    0"
2017-11-03T18:56:45.389Z,"    0"
2017-11-03T19:01:41.029Z,"    0"
2017-11-03T19:06:37.762Z,"    0"
2017-11-03T19:11:33.999Z,"    0"
2017-11-03T19:16:29.434Z,"    0"
2017-11-03T19:21:25.163Z,"    0"
2017-11-03T19:26:20.999Z,"    0"
2017-11-03T19:31:16.326Z,"    0"
2017-11-03T19:36:13.079Z,"    0"
2017-11-03T19:41:08.601Z,"    0"
2017-11-03T19:46:04.170Z,"    0"
2017-11-03T19:51:00.964Z,"    0"
2017-11-03T19:55:56.332Z,"    0"
2017-11-03T20:00:51.956Z,"    0"
2017-11-03T20:05:48.369Z,"    0"
2017-11-03T20:10:45.109Z,"    0"
2017-11-03T20:15:41.151Z,"    0"
2017-11-03T20:20:36.847Z,"    0"
2017-11-03T20:25:32.717Z,"    0"
2017-11-03T20:30:29.544Z,"    0"
2017-11-03T20:35:26.095Z,"    0"
2017-11-03T20:40:21.698Z,"    0"
2017-11-03T20:45:17.712Z,"    0"
2017-11-03T20:50:13.371Z,"    0"
2017-11-03T20:55:09.028Z,"    0"
2017-11-03T21:00:05.819Z,"    0"
2017-11-03T21:05:01.074Z,"    0"
2017-11-03T21:09:58.782Z,"    0"
2017-11-03T21:14:53.983Z,"    0"
2017-11-03T21:19:51.332Z,"    0"
2017-11-03T21:24:48.720Z,"    0"
2017-11-03T21:29:44.801Z,"    0"
2017-11-03T21:34:40.257Z,"    0"
2017-11-03T21:39:35.981Z,"    0"
2017-11-03T21:44:32.426Z,"    0"
2017-11-03T21:49:28.388Z,"    0"
2017-11-03T21:54:24.508Z,"    0"
2017-11-03T21:59:20.429Z,"    0"
2017-11-03T22:04:16.116Z,"    0"
2017-11-03T22:09:12.067Z,"    0"
2017-11-03T22:14:08.033Z,"    0"
2017-11-03T22:19:03.832Z,"    0"
2017-11-03T22:23:59.450Z,"    0"
2017-11-03T22:28:55.291Z,"    0"
2017-11-03T22:33:52.853Z,"    0"
2017-11-03T22:38:50.336Z,"    0"
2017-11-03T22:43:47.653Z,"    0"
2017-11-03T22:48:44.526Z,"    0"
2017-11-03T22:53:40.056Z,"    0"
2017-11-03T22:58:35.739Z,"    0"
2017-11-03T23:03:31.284Z,"    0"
2017-11-03T23:08:28.199Z,"    0"
2017-11-03T23:13:23.464Z,"    0"
2017-11-03T23:18:19.413Z,"    0"
2017-11-03T23:23:15.907Z,"    0"
2017-11-03T23:28:12.462Z,"    0"
2017-11-03T23:33:07.804Z,"    0"
2017-11-03T23:38:04.438Z,"    0"
2017-11-03T23:43:00.863Z,"    0"
2017-11-03T23:47:57.341Z,"    0"
2017-11-03T23:52:52.762Z,"    0"
2017-11-03T23:57:48.406Z,"    0"
